sensor_id;sensor_type;location;lat;lon;timestamp;P1;durP1;ratioP1;P2;durP2;ratioP2
15402;SDS011;7799;53.478;10.170;2023-02-11T00:00:09;24.33;;;17.87;;
15402;SDS011;7799;53.478;10.170;2023-02-11T00:02:37;19.60;;;16.33;;
15402;SDS011;7799;53.478;10.170;2023-02-11T00:05:03;21.53;;;17.27;;
15402;SDS011;7799;53.478;10.170;2023-02-11T00:07:32;21.37;;;16.37;;
15402;SDS011;7799;53.478;10.170;2023-02-11T00:09:59;18.17;;;14.33;;
15402;SDS011;7799;53.478;10.170;2023-02-11T00:12:27;23.33;;;18.20;;
15402;SDS011;7799;53.478;10.170;2023-02-11T00:14:54;24.47;;;18.73;;
15402;SDS011;7799;53.478;10.170;2023-02-11T00:17:21;22.97;;;18.27;;
15402;SDS011;7799;53.478;10.170;2023-02-11T00:19:48;21.03;;;16.40;;
15402;SDS011;7799;53.478;10.170;2023-02-11T00:22:14;23.97;;;16.93;;
15402;SDS011;7799;53.478;10.170;2023-02-11T00:24:42;23.50;;;18.20;;
15402;SDS011;7799;53.478;10.170;2023-02-11T00:27:09;21.90;;;18.03;;
15402;SDS011;7799;53.478;10.170;2023-02-11T00:29:36;24.37;;;18.50;;
15402;SDS011;7799;53.478;10.170;2023-02-11T00:32:03;21.63;;;16.47;;
15402;SDS011;7799;53.478;10.170;2023-02-11T00:34:30;24.37;;;18.27;;
15402;SDS011;7799;53.478;10.170;2023-02-11T00:36:56;20.83;;;17.80;;
15402;SDS011;7799;53.478;10.170;2023-02-11T00:39:23;25.50;;;18.40;;
15402;SDS011;7799;53.478;10.170;2023-02-11T00:41:51;20.23;;;16.13;;
15402;SDS011;7799;53.478;10.170;2023-02-11T00:44:18;22.30;;;17.57;;
15402;SDS011;7799;53.478;10.170;2023-02-11T00:46:46;26.77;;;19.67;;
15402;SDS011;7799;53.478;10.170;2023-02-11T00:49:12;23.63;;;18.00;;
15402;SDS011;7799;53.478;10.170;2023-02-11T00:51:40;24.20;;;17.70;;
15402;SDS011;7799;53.478;10.170;2023-02-11T00:54:06;19.73;;;16.37;;
15402;SDS011;7799;53.478;10.170;2023-02-11T00:56:33;23.30;;;17.63;;
15402;SDS011;7799;53.478;10.170;2023-02-11T00:59:01;21.30;;;17.33;;
15402;SDS011;7799;53.478;10.170;2023-02-11T01:01:28;24.27;;;17.53;;
15402;SDS011;7799;53.478;10.170;2023-02-11T01:03:55;23.93;;;17.83;;
15402;SDS011;7799;53.478;10.170;2023-02-11T01:06:21;21.73;;;17.10;;
15402;SDS011;7799;53.478;10.170;2023-02-11T01:08:48;21.50;;;16.90;;
15402;SDS011;7799;53.478;10.170;2023-02-11T01:11:15;23.50;;;17.33;;
15402;SDS011;7799;53.478;10.170;2023-02-11T01:13:43;21.17;;;17.00;;
15402;SDS011;7799;53.478;10.170;2023-02-11T01:16:12;20.20;;;16.67;;
15402;SDS011;7799;53.478;10.170;2023-02-11T01:18:39;18.13;;;15.73;;
15402;SDS011;7799;53.478;10.170;2023-02-11T01:21:06;22.13;;;17.97;;
15402;SDS011;7799;53.478;10.170;2023-02-11T01:23:32;22.20;;;17.50;;
15402;SDS011;7799;53.478;10.170;2023-02-11T01:25:59;21.13;;;15.80;;
15402;SDS011;7799;53.478;10.170;2023-02-11T01:28:27;17.20;;;14.83;;
15402;SDS011;7799;53.478;10.170;2023-02-11T01:30:58;21.73;;;16.93;;
15402;SDS011;7799;53.478;10.170;2023-02-11T01:33:26;21.03;;;16.37;;
15402;SDS011;7799;53.478;10.170;2023-02-11T01:35:53;20.00;;;16.30;;
15402;SDS011;7799;53.478;10.170;2023-02-11T01:38:21;24.10;;;16.57;;
15402;SDS011;7799;53.478;10.170;2023-02-11T01:40:50;23.87;;;17.67;;
15402;SDS011;7799;53.478;10.170;2023-02-11T01:43:18;23.37;;;17.83;;
15402;SDS011;7799;53.478;10.170;2023-02-11T01:48:35;19.30;;;15.40;;
15402;SDS011;7799;53.478;10.170;2023-02-11T01:51:06;23.07;;;17.50;;
15402;SDS011;7799;53.478;10.170;2023-02-11T01:53:34;20.23;;;16.60;;
15402;SDS011;7799;53.478;10.170;2023-02-11T01:56:21;18.00;;;14.23;;
15402;SDS011;7799;53.478;10.170;2023-02-11T01:59:12;20.27;;;15.20;;
15402;SDS011;7799;53.478;10.170;2023-02-11T02:01:43;19.33;;;15.30;;
15402;SDS011;7799;53.478;10.170;2023-02-11T02:04:14;17.97;;;15.27;;
15402;SDS011;7799;53.478;10.170;2023-02-11T02:06:45;21.30;;;17.63;;
15402;SDS011;7799;53.478;10.170;2023-02-11T02:09:15;22.23;;;16.10;;
15402;SDS011;7799;53.478;10.170;2023-02-11T02:11:45;18.13;;;14.03;;
15402;SDS011;7799;53.478;10.170;2023-02-11T02:14:12;18.27;;;13.97;;
15402;SDS011;7799;53.478;10.170;2023-02-11T02:16:39;19.47;;;14.50;;
15402;SDS011;7799;53.478;10.170;2023-02-11T02:19:17;22.13;;;16.60;;
15402;SDS011;7799;53.478;10.170;2023-02-11T02:24:53;20.40;;;16.50;;
15402;SDS011;7799;53.478;10.170;2023-02-11T02:30:10;20.63;;;15.70;;
15402;SDS011;7799;53.478;10.170;2023-02-11T02:32:46;17.30;;;14.30;;
15402;SDS011;7799;53.478;10.170;2023-02-11T02:35:19;19.80;;;14.07;;
15402;SDS011;7799;53.478;10.170;2023-02-11T02:37:54;18.07;;;14.23;;
15402;SDS011;7799;53.478;10.170;2023-02-11T02:40:24;19.07;;;13.90;;
15402;SDS011;7799;53.478;10.170;2023-02-11T02:42:52;18.10;;;14.73;;
15402;SDS011;7799;53.478;10.170;2023-02-11T02:45:20;18.03;;;14.53;;
15402;SDS011;7799;53.478;10.170;2023-02-11T02:47:48;20.33;;;15.37;;
15402;SDS011;7799;53.478;10.170;2023-02-11T02:50:15;21.93;;;15.93;;
15402;SDS011;7799;53.478;10.170;2023-02-11T02:52:51;18.10;;;15.00;;
15402;SDS011;7799;53.478;10.170;2023-02-11T02:55:25;19.60;;;14.93;;
15402;SDS011;7799;53.478;10.170;2023-02-11T02:58:13;16.57;;;13.60;;
15402;SDS011;7799;53.478;10.170;2023-02-11T03:00:51;19.17;;;14.43;;
15402;SDS011;7799;53.478;10.170;2023-02-11T03:03:26;22.40;;;15.97;;
15402;SDS011;7799;53.478;10.170;2023-02-11T03:05:56;20.37;;;15.43;;
15402;SDS011;7799;53.478;10.170;2023-02-11T03:08:26;18.10;;;14.20;;
15402;SDS011;7799;53.478;10.170;2023-02-11T03:10:55;19.07;;;13.67;;
15402;SDS011;7799;53.478;10.170;2023-02-11T03:13:25;14.30;;;12.63;;
15402;SDS011;7799;53.478;10.170;2023-02-11T03:15:56;16.43;;;12.50;;
15402;SDS011;7799;53.478;10.170;2023-02-11T03:18:26;17.27;;;12.67;;
15402;SDS011;7799;53.478;10.170;2023-02-11T03:20:54;17.30;;;14.10;;
15402;SDS011;7799;53.478;10.170;2023-02-11T03:23:22;13.57;;;12.07;;
15402;SDS011;7799;53.478;10.170;2023-02-11T03:25:54;12.80;;;10.80;;
15402;SDS011;7799;53.478;10.170;2023-02-11T03:28:23;15.83;;;11.33;;
15402;SDS011;7799;53.478;10.170;2023-02-11T03:30:55;17.77;;;13.33;;
15402;SDS011;7799;53.478;10.170;2023-02-11T03:33:28;13.73;;;11.33;;
15402;SDS011;7799;53.478;10.170;2023-02-11T03:36:00;14.27;;;11.43;;
15402;SDS011;7799;53.478;10.170;2023-02-11T03:38:28;14.60;;;11.53;;
15402;SDS011;7799;53.478;10.170;2023-02-11T03:40:57;14.20;;;12.27;;
15402;SDS011;7799;53.478;10.170;2023-02-11T03:43:25;15.37;;;12.23;;
15402;SDS011;7799;53.478;10.170;2023-02-11T03:45:54;17.13;;;11.50;;
15402;SDS011;7799;53.478;10.170;2023-02-11T03:48:22;12.60;;;10.93;;
15402;SDS011;7799;53.478;10.170;2023-02-11T03:50:52;15.80;;;10.90;;
15402;SDS011;7799;53.478;10.170;2023-02-11T03:53:19;13.90;;;10.53;;
15402;SDS011;7799;53.478;10.170;2023-02-11T03:55:48;13.53;;;10.40;;
15402;SDS011;7799;53.478;10.170;2023-02-11T03:58:16;11.33;;;9.40;;
15402;SDS011;7799;53.478;10.170;2023-02-11T04:00:43;10.53;;;8.53;;
15402;SDS011;7799;53.478;10.170;2023-02-11T04:03:10;12.33;;;9.60;;
15402;SDS011;7799;53.478;10.170;2023-02-11T04:05:37;12.10;;;9.90;;
15402;SDS011;7799;53.478;10.170;2023-02-11T04:08:05;13.60;;;10.13;;
15402;SDS011;7799;53.478;10.170;2023-02-11T04:10:33;12.63;;;10.80;;
15402;SDS011;7799;53.478;10.170;2023-02-11T04:12:59;12.03;;;10.07;;
15402;SDS011;7799;53.478;10.170;2023-02-11T04:15:26;13.80;;;10.97;;
15402;SDS011;7799;53.478;10.170;2023-02-11T04:17:53;13.80;;;10.53;;
15402;SDS011;7799;53.478;10.170;2023-02-11T04:20:20;13.20;;;10.47;;
15402;SDS011;7799;53.478;10.170;2023-02-11T04:22:47;14.03;;;11.23;;
15402;SDS011;7799;53.478;10.170;2023-02-11T04:25:15;12.30;;;10.60;;
15402;SDS011;7799;53.478;10.170;2023-02-11T04:27:42;12.17;;;9.87;;
15402;SDS011;7799;53.478;10.170;2023-02-11T04:30:09;12.10;;;9.63;;
15402;SDS011;7799;53.478;10.170;2023-02-11T04:32:37;13.77;;;10.87;;
15402;SDS011;7799;53.478;10.170;2023-02-11T04:35:04;14.17;;;10.03;;
15402;SDS011;7799;53.478;10.170;2023-02-11T04:37:31;12.37;;;9.77;;
15402;SDS011;7799;53.478;10.170;2023-02-11T04:39:58;11.73;;;9.67;;
15402;SDS011;7799;53.478;10.170;2023-02-11T04:42:26;12.30;;;9.63;;
15402;SDS011;7799;53.478;10.170;2023-02-11T04:44:53;11.83;;;9.23;;
15402;SDS011;7799;53.478;10.170;2023-02-11T04:47:20;12.27;;;9.23;;
15402;SDS011;7799;53.478;10.170;2023-02-11T04:49:47;13.60;;;9.60;;
15402;SDS011;7799;53.478;10.170;2023-02-11T04:52:13;13.60;;;10.53;;
15402;SDS011;7799;53.478;10.170;2023-02-11T04:54:40;10.23;;;8.53;;
15402;SDS011;7799;53.478;10.170;2023-02-11T04:57:07;10.73;;;9.30;;
15402;SDS011;7799;53.478;10.170;2023-02-11T04:59:35;11.07;;;8.67;;
15402;SDS011;7799;53.478;10.170;2023-02-11T05:02:02;10.07;;;8.17;;
15402;SDS011;7799;53.478;10.170;2023-02-11T05:04:29;12.60;;;8.77;;
15402;SDS011;7799;53.478;10.170;2023-02-11T05:06:56;13.97;;;10.03;;
15402;SDS011;7799;53.478;10.170;2023-02-11T05:09:22;11.87;;;8.87;;
15402;SDS011;7799;53.478;10.170;2023-02-11T05:11:49;12.30;;;9.13;;
15402;SDS011;7799;53.478;10.170;2023-02-11T05:14:17;12.17;;;9.33;;
15402;SDS011;7799;53.478;10.170;2023-02-11T05:16:46;9.50;;;8.60;;
15402;SDS011;7799;53.478;10.170;2023-02-11T05:19:12;11.57;;;9.40;;
15402;SDS011;7799;53.478;10.170;2023-02-11T05:21:39;13.73;;;9.93;;
15402;SDS011;7799;53.478;10.170;2023-02-11T05:24:07;14.57;;;9.77;;
15402;SDS011;7799;53.478;10.170;2023-02-11T05:26:34;12.97;;;9.40;;
15402;SDS011;7799;53.478;10.170;2023-02-11T05:29:00;12.97;;;8.70;;
15402;SDS011;7799;53.478;10.170;2023-02-11T05:31:27;10.43;;;8.30;;
15402;SDS011;7799;53.478;10.170;2023-02-11T05:33:55;11.53;;;9.20;;
15402;SDS011;7799;53.478;10.170;2023-02-11T05:36:22;10.37;;;8.07;;
15402;SDS011;7799;53.478;10.170;2023-02-11T05:38:49;12.07;;;9.30;;
15402;SDS011;7799;53.478;10.170;2023-02-11T05:41:16;10.13;;;8.80;;
15402;SDS011;7799;53.478;10.170;2023-02-11T05:43:43;13.27;;;9.80;;
15402;SDS011;7799;53.478;10.170;2023-02-11T05:46:09;10.60;;;9.13;;
15402;SDS011;7799;53.478;10.170;2023-02-11T05:48:36;10.50;;;8.30;;
15402;SDS011;7799;53.478;10.170;2023-02-11T05:51:05;12.60;;;9.37;;
15402;SDS011;7799;53.478;10.170;2023-02-11T05:53:31;12.77;;;9.27;;
15402;SDS011;7799;53.478;10.170;2023-02-11T05:55:58;12.03;;;8.57;;
15402;SDS011;7799;53.478;10.170;2023-02-11T05:58:25;9.93;;;8.00;;
15402;SDS011;7799;53.478;10.170;2023-02-11T06:00:51;8.83;;;7.80;;
15402;SDS011;7799;53.478;10.170;2023-02-11T06:03:18;11.63;;;7.97;;
15402;SDS011;7799;53.478;10.170;2023-02-11T06:05:45;10.10;;;8.60;;
15402;SDS011;7799;53.478;10.170;2023-02-11T06:08:13;10.10;;;8.40;;
15402;SDS011;7799;53.478;10.170;2023-02-11T06:10:43;11.37;;;8.40;;
15402;SDS011;7799;53.478;10.170;2023-02-11T06:13:10;9.43;;;8.20;;
15402;SDS011;7799;53.478;10.170;2023-02-11T06:15:37;9.03;;;7.80;;
15402;SDS011;7799;53.478;10.170;2023-02-11T06:18:04;9.20;;;7.77;;
15402;SDS011;7799;53.478;10.170;2023-02-11T06:20:31;8.57;;;6.93;;
15402;SDS011;7799;53.478;10.170;2023-02-11T06:22:58;8.93;;;7.37;;
15402;SDS011;7799;53.478;10.170;2023-02-11T06:25:26;8.17;;;7.00;;
15402;SDS011;7799;53.478;10.170;2023-02-11T06:27:52;9.50;;;7.17;;
15402;SDS011;7799;53.478;10.170;2023-02-11T06:30:19;7.87;;;6.83;;
15402;SDS011;7799;53.478;10.170;2023-02-11T06:32:46;7.13;;;6.43;;
15402;SDS011;7799;53.478;10.170;2023-02-11T06:35:13;8.00;;;7.00;;
15402;SDS011;7799;53.478;10.170;2023-02-11T06:37:40;7.80;;;6.83;;
15402;SDS011;7799;53.478;10.170;2023-02-11T06:40:08;7.93;;;7.00;;
15402;SDS011;7799;53.478;10.170;2023-02-11T06:42:36;9.03;;;7.47;;
15402;SDS011;7799;53.478;10.170;2023-02-11T06:45:04;7.60;;;6.67;;
15402;SDS011;7799;53.478;10.170;2023-02-11T06:47:33;8.60;;;6.90;;
15402;SDS011;7799;53.478;10.170;2023-02-11T06:50:00;11.00;;;7.70;;
15402;SDS011;7799;53.478;10.170;2023-02-11T06:52:26;8.70;;;7.27;;
15402;SDS011;7799;53.478;10.170;2023-02-11T06:54:53;11.00;;;7.47;;
15402;SDS011;7799;53.478;10.170;2023-02-11T06:57:20;7.23;;;6.43;;
15402;SDS011;7799;53.478;10.170;2023-02-11T06:59:48;8.00;;;6.77;;
15402;SDS011;7799;53.478;10.170;2023-02-11T07:02:15;10.23;;;8.57;;
15402;SDS011;7799;53.478;10.170;2023-02-11T07:04:42;10.40;;;9.40;;
15402;SDS011;7799;53.478;10.170;2023-02-11T07:07:09;11.67;;;9.43;;
15402;SDS011;7799;53.478;10.170;2023-02-11T07:09:36;9.10;;;8.30;;
15402;SDS011;7799;53.478;10.170;2023-02-11T07:12:03;9.17;;;8.20;;
15402;SDS011;7799;53.478;10.170;2023-02-11T07:14:30;10.30;;;8.80;;
15402;SDS011;7799;53.478;10.170;2023-02-11T07:16:58;11.00;;;9.03;;
15402;SDS011;7799;53.478;10.170;2023-02-11T07:19:25;8.87;;;7.93;;
15402;SDS011;7799;53.478;10.170;2023-02-11T07:21:52;9.43;;;7.83;;
15402;SDS011;7799;53.478;10.170;2023-02-11T07:24:19;8.47;;;7.10;;
15402;SDS011;7799;53.478;10.170;2023-02-11T07:26:46;9.30;;;8.07;;
15402;SDS011;7799;53.478;10.170;2023-02-11T07:29:12;7.70;;;7.00;;
15402;SDS011;7799;53.478;10.170;2023-02-11T07:31:39;7.80;;;7.10;;
15402;SDS011;7799;53.478;10.170;2023-02-11T07:34:08;7.17;;;6.47;;
15402;SDS011;7799;53.478;10.170;2023-02-11T07:36:35;6.97;;;6.27;;
15402;SDS011;7799;53.478;10.170;2023-02-11T07:39:02;7.37;;;6.67;;
15402;SDS011;7799;53.478;10.170;2023-02-11T07:41:29;7.47;;;6.20;;
15402;SDS011;7799;53.478;10.170;2023-02-11T07:43:56;10.53;;;7.10;;
15402;SDS011;7799;53.478;10.170;2023-02-11T07:46:24;7.50;;;6.80;;
15402;SDS011;7799;53.478;10.170;2023-02-11T07:48:51;7.93;;;6.83;;
15402;SDS011;7799;53.478;10.170;2023-02-11T07:51:21;8.63;;;7.67;;
15402;SDS011;7799;53.478;10.170;2023-02-11T07:53:48;8.90;;;7.77;;
15402;SDS011;7799;53.478;10.170;2023-02-11T07:56:16;10.00;;;8.23;;
15402;SDS011;7799;53.478;10.170;2023-02-11T07:58:44;8.83;;;7.60;;
15402;SDS011;7799;53.478;10.170;2023-02-11T08:01:12;9.70;;;8.23;;
15402;SDS011;7799;53.478;10.170;2023-02-11T08:03:40;8.90;;;7.87;;
15402;SDS011;7799;53.478;10.170;2023-02-11T08:06:08;10.67;;;7.90;;
15402;SDS011;7799;53.478;10.170;2023-02-11T08:08:37;7.67;;;6.87;;
15402;SDS011;7799;53.478;10.170;2023-02-11T08:11:05;7.43;;;6.73;;
15402;SDS011;7799;53.478;10.170;2023-02-11T08:13:33;7.80;;;6.97;;
15402;SDS011;7799;53.478;10.170;2023-02-11T08:16:00;8.93;;;7.10;;
15402;SDS011;7799;53.478;10.170;2023-02-11T08:18:27;8.13;;;7.07;;
15402;SDS011;7799;53.478;10.170;2023-02-11T08:20:54;8.03;;;7.23;;
15402;SDS011;7799;53.478;10.170;2023-02-11T08:23:20;7.07;;;6.27;;
15402;SDS011;7799;53.478;10.170;2023-02-11T08:25:49;8.43;;;7.00;;
15402;SDS011;7799;53.478;10.170;2023-02-11T08:28:15;7.40;;;6.70;;
15402;SDS011;7799;53.478;10.170;2023-02-11T08:30:42;8.30;;;7.20;;
15402;SDS011;7799;53.478;10.170;2023-02-11T08:33:09;6.77;;;6.07;;
15402;SDS011;7799;53.478;10.170;2023-02-11T08:35:36;7.77;;;6.97;;
15402;SDS011;7799;53.478;10.170;2023-02-11T08:38:04;9.23;;;7.27;;
15402;SDS011;7799;53.478;10.170;2023-02-11T08:40:31;8.03;;;6.57;;
15402;SDS011;7799;53.478;10.170;2023-02-11T08:42:59;8.33;;;6.60;;
15402;SDS011;7799;53.478;10.170;2023-02-11T08:45:26;7.57;;;6.77;;
15402;SDS011;7799;53.478;10.170;2023-02-11T08:47:53;8.70;;;7.27;;
15402;SDS011;7799;53.478;10.170;2023-02-11T08:50:19;9.37;;;7.37;;
15402;SDS011;7799;53.478;10.170;2023-02-11T08:52:46;9.10;;;7.60;;
15402;SDS011;7799;53.478;10.170;2023-02-11T08:55:13;9.23;;;8.13;;
15402;SDS011;7799;53.478;10.170;2023-02-11T08:57:40;8.60;;;7.70;;
15402;SDS011;7799;53.478;10.170;2023-02-11T09:00:09;7.00;;;6.30;;
15402;SDS011;7799;53.478;10.170;2023-02-11T09:02:36;9.27;;;7.30;;
15402;SDS011;7799;53.478;10.170;2023-02-11T09:05:04;8.17;;;6.97;;
15402;SDS011;7799;53.478;10.170;2023-02-11T09:07:31;9.37;;;7.10;;
15402;SDS011;7799;53.478;10.170;2023-02-11T09:09:58;6.97;;;6.17;;
15402;SDS011;7799;53.478;10.170;2023-02-11T09:12:24;7.50;;;6.80;;
15402;SDS011;7799;53.478;10.170;2023-02-11T09:14:51;7.13;;;6.33;;
15402;SDS011;7799;53.478;10.170;2023-02-11T09:17:19;9.93;;;7.70;;
15402;SDS011;7799;53.478;10.170;2023-02-11T09:19:46;7.87;;;7.07;;
15402;SDS011;7799;53.478;10.170;2023-02-11T09:22:13;8.27;;;6.73;;
15402;SDS011;7799;53.478;10.170;2023-02-11T09:24:40;8.03;;;7.10;;
15402;SDS011;7799;53.478;10.170;2023-02-11T09:27:06;8.33;;;7.53;;
15402;SDS011;7799;53.478;10.170;2023-02-11T09:29:33;7.20;;;6.50;;
15402;SDS011;7799;53.478;10.170;2023-02-11T09:32:00;6.67;;;5.93;;
15402;SDS011;7799;53.478;10.170;2023-02-11T09:34:28;7.03;;;5.73;;
15402;SDS011;7799;53.478;10.170;2023-02-11T09:36:55;6.90;;;6.00;;
15402;SDS011;7799;53.478;10.170;2023-02-11T09:39:22;6.37;;;5.63;;
15402;SDS011;7799;53.478;10.170;2023-02-11T09:41:58;8.53;;;6.50;;
15402;SDS011;7799;53.478;10.170;2023-02-11T09:44:32;8.50;;;7.63;;
15402;SDS011;7799;53.478;10.170;2023-02-11T09:47:01;8.10;;;7.30;;
15402;SDS011;7799;53.478;10.170;2023-02-11T09:49:32;7.80;;;6.70;;
15402;SDS011;7799;53.478;10.170;2023-02-11T09:52:02;9.53;;;6.97;;
15402;SDS011;7799;53.478;10.170;2023-02-11T09:54:33;7.97;;;6.27;;
15402;SDS011;7799;53.478;10.170;2023-02-11T09:57:03;7.13;;;6.23;;
15402;SDS011;7799;53.478;10.170;2023-02-11T09:59:31;6.33;;;5.73;;
15402;SDS011;7799;53.478;10.170;2023-02-11T10:01:59;7.77;;;6.37;;
15402;SDS011;7799;53.478;10.170;2023-02-11T10:04:36;6.73;;;5.70;;
15402;SDS011;7799;53.478;10.170;2023-02-11T10:07:13;6.73;;;5.60;;
15402;SDS011;7799;53.478;10.170;2023-02-11T10:09:50;7.87;;;6.10;;
15402;SDS011;7799;53.478;10.170;2023-02-11T10:12:39;7.33;;;5.73;;
15402;SDS011;7799;53.478;10.170;2023-02-11T10:15:17;7.70;;;5.80;;
15402;SDS011;7799;53.478;10.170;2023-02-11T10:18:00;6.73;;;5.83;;
15402;SDS011;7799;53.478;10.170;2023-02-11T10:20:35;7.10;;;5.40;;
15402;SDS011;7799;53.478;10.170;2023-02-11T10:23:07;6.77;;;5.27;;
15402;SDS011;7799;53.478;10.170;2023-02-11T10:25:36;5.93;;;4.93;;
15402;SDS011;7799;53.478;10.170;2023-02-11T10:28:09;6.87;;;5.67;;
15402;SDS011;7799;53.478;10.170;2023-02-11T10:30:40;6.33;;;5.33;;
15402;SDS011;7799;53.478;10.170;2023-02-11T10:33:10;5.30;;;4.80;;
15402;SDS011;7799;53.478;10.170;2023-02-11T10:35:42;5.27;;;4.77;;
15402;SDS011;7799;53.478;10.170;2023-02-11T10:38:10;7.50;;;5.13;;
15402;SDS011;7799;53.478;10.170;2023-02-11T10:40:37;5.50;;;4.87;;
15402;SDS011;7799;53.478;10.170;2023-02-11T10:43:05;5.83;;;5.07;;
15402;SDS011;7799;53.478;10.170;2023-02-11T10:45:35;5.13;;;4.43;;
15402;SDS011;7799;53.478;10.170;2023-02-11T10:48:03;6.37;;;4.53;;
15402;SDS011;7799;53.478;10.170;2023-02-11T10:50:32;7.03;;;5.27;;
15402;SDS011;7799;53.478;10.170;2023-02-11T10:53:12;6.93;;;5.30;;
15402;SDS011;7799;53.478;10.170;2023-02-11T10:55:48;7.53;;;5.50;;
15402;SDS011;7799;53.478;10.170;2023-02-11T10:58:23;7.53;;;5.07;;
15402;SDS011;7799;53.478;10.170;2023-02-11T11:00:52;6.73;;;5.17;;
15402;SDS011;7799;53.478;10.170;2023-02-11T11:03:20;6.53;;;4.77;;
15402;SDS011;7799;53.478;10.170;2023-02-11T11:05:48;5.97;;;4.73;;
15402;SDS011;7799;53.478;10.170;2023-02-11T11:08:18;6.10;;;4.53;;
15402;SDS011;7799;53.478;10.170;2023-02-11T11:10:45;4.90;;;4.10;;
15402;SDS011;7799;53.478;10.170;2023-02-11T11:13:27;4.67;;;4.20;;
15402;SDS011;7799;53.478;10.170;2023-02-11T11:16:06;4.80;;;4.37;;
15402;SDS011;7799;53.478;10.170;2023-02-11T11:18:44;6.40;;;4.77;;
15402;SDS011;7799;53.478;10.170;2023-02-11T11:21:12;4.53;;;4.00;;
15402;SDS011;7799;53.478;10.170;2023-02-11T11:23:45;4.83;;;4.13;;
15402;SDS011;7799;53.478;10.170;2023-02-11T11:26:13;4.27;;;3.87;;
15402;SDS011;7799;53.478;10.170;2023-02-11T11:28:42;4.50;;;3.97;;
15402;SDS011;7799;53.478;10.170;2023-02-11T11:31:17;4.10;;;3.67;;
15402;SDS011;7799;53.478;10.170;2023-02-11T11:33:47;4.47;;;3.30;;
15402;SDS011;7799;53.478;10.170;2023-02-11T11:36:14;5.50;;;4.17;;
15402;SDS011;7799;53.478;10.170;2023-02-11T11:38:44;4.33;;;3.67;;
15402;SDS011;7799;53.478;10.170;2023-02-11T11:41:16;4.83;;;3.53;;
15402;SDS011;7799;53.478;10.170;2023-02-11T11:43:55;3.57;;;3.27;;
15402;SDS011;7799;53.478;10.170;2023-02-11T11:46:24;4.17;;;3.33;;
15402;SDS011;7799;53.478;10.170;2023-02-11T11:48:53;3.53;;;3.20;;
15402;SDS011;7799;53.478;10.170;2023-02-11T11:51:23;3.97;;;3.17;;
15402;SDS011;7799;53.478;10.170;2023-02-11T11:53:54;4.17;;;3.50;;
15402;SDS011;7799;53.478;10.170;2023-02-11T11:56:24;5.07;;;3.10;;
15402;SDS011;7799;53.478;10.170;2023-02-11T11:58:52;3.50;;;3.20;;
15402;SDS011;7799;53.478;10.170;2023-02-11T12:01:22;3.53;;;3.20;;
15402;SDS011;7799;53.478;10.170;2023-02-11T12:04:11;3.77;;;3.00;;
15402;SDS011;7799;53.478;10.170;2023-02-11T12:06:59;3.20;;;2.90;;
15402;SDS011;7799;53.478;10.170;2023-02-11T12:09:36;4.57;;;3.20;;
15402;SDS011;7799;53.478;10.170;2023-02-11T12:12:13;3.63;;;2.90;;
15402;SDS011;7799;53.478;10.170;2023-02-11T12:14:49;4.23;;;3.40;;
15402;SDS011;7799;53.478;10.170;2023-02-11T12:17:24;4.90;;;3.50;;
15402;SDS011;7799;53.478;10.170;2023-02-11T12:20:04;5.20;;;3.10;;
15402;SDS011;7799;53.478;10.170;2023-02-11T12:22:40;4.67;;;3.10;;
15402;SDS011;7799;53.478;10.170;2023-02-11T12:25:18;3.63;;;2.90;;
15402;SDS011;7799;53.478;10.170;2023-02-11T12:27:53;3.90;;;3.03;;
15402;SDS011;7799;53.478;10.170;2023-02-11T12:30:33;4.00;;;2.90;;
15402;SDS011;7799;53.478;10.170;2023-02-11T12:33:14;4.57;;;3.10;;
15402;SDS011;7799;53.478;10.170;2023-02-11T12:35:46;3.30;;;2.70;;
15402;SDS011;7799;53.478;10.170;2023-02-11T12:38:28;3.50;;;3.20;;
15402;SDS011;7799;53.478;10.170;2023-02-11T12:41:06;4.20;;;3.77;;
15402;SDS011;7799;53.478;10.170;2023-02-11T12:44:04;4.93;;;3.17;;
15402;SDS011;7799;53.478;10.170;2023-02-11T12:46:32;5.03;;;4.40;;
15402;SDS011;7799;53.478;10.170;2023-02-11T12:49:06;4.83;;;4.30;;
15402;SDS011;7799;53.478;10.170;2023-02-11T12:51:44;4.27;;;3.97;;
15402;SDS011;7799;53.478;10.170;2023-02-11T12:54:18;4.37;;;4.07;;
15402;SDS011;7799;53.478;10.170;2023-02-11T12:56:51;4.80;;;4.30;;
15402;SDS011;7799;53.478;10.170;2023-02-11T12:59:26;4.97;;;4.57;;
15402;SDS011;7799;53.478;10.170;2023-02-11T13:01:58;5.80;;;5.00;;
15402;SDS011;7799;53.478;10.170;2023-02-11T13:04:27;4.27;;;3.97;;
15402;SDS011;7799;53.478;10.170;2023-02-11T13:06:59;4.27;;;3.97;;
15402;SDS011;7799;53.478;10.170;2023-02-11T13:09:31;4.30;;;3.90;;
15402;SDS011;7799;53.478;10.170;2023-02-11T13:12:02;4.50;;;4.13;;
15402;SDS011;7799;53.478;10.170;2023-02-11T13:14:52;3.93;;;3.63;;
15402;SDS011;7799;53.478;10.170;2023-02-11T13:17:21;4.47;;;4.07;;
15402;SDS011;7799;53.478;10.170;2023-02-11T13:19:51;4.50;;;4.10;;
15402;SDS011;7799;53.478;10.170;2023-02-11T13:22:22;3.23;;;3.03;;
15402;SDS011;7799;53.478;10.170;2023-02-11T13:24:52;4.57;;;4.13;;
15402;SDS011;7799;53.478;10.170;2023-02-11T13:27:27;3.90;;;3.60;;
15402;SDS011;7799;53.478;10.170;2023-02-11T13:35:44;4.70;;;4.10;;
15402;SDS011;7799;53.478;10.170;2023-02-11T13:38:19;5.33;;;3.90;;
15402;SDS011;7799;53.478;10.170;2023-02-11T13:40:57;4.53;;;3.93;;
15402;SDS011;7799;53.478;10.170;2023-02-11T13:43:26;4.37;;;3.90;;
15402;SDS011;7799;53.478;10.170;2023-02-11T13:45:56;4.33;;;3.97;;
15402;SDS011;7799;53.478;10.170;2023-02-11T13:48:25;5.43;;;4.10;;
15402;SDS011;7799;53.478;10.170;2023-02-11T13:50:56;4.70;;;4.20;;
15402;SDS011;7799;53.478;10.170;2023-02-11T13:53:23;4.50;;;4.10;;
15402;SDS011;7799;53.478;10.170;2023-02-11T13:55:52;5.10;;;4.60;;
15402;SDS011;7799;53.478;10.170;2023-02-11T13:58:35;5.33;;;4.60;;
15402;SDS011;7799;53.478;10.170;2023-02-11T14:01:04;5.33;;;4.80;;
15402;SDS011;7799;53.478;10.170;2023-02-11T14:03:35;6.20;;;4.87;;
15402;SDS011;7799;53.478;10.170;2023-02-11T14:06:21;5.30;;;4.80;;
15402;SDS011;7799;53.478;10.170;2023-02-11T14:12:19;5.77;;;5.27;;
15402;SDS011;7799;53.478;10.170;2023-02-11T14:15:00;4.77;;;4.37;;
15402;SDS011;7799;53.478;10.170;2023-02-11T14:17:42;4.50;;;4.10;;
15402;SDS011;7799;53.478;10.170;2023-02-11T14:23:01;3.53;;;3.23;;
15402;SDS011;7799;53.478;10.170;2023-02-11T14:25:29;3.40;;;3.03;;
15402;SDS011;7799;53.478;10.170;2023-02-11T14:27:56;4.47;;;3.57;;
15402;SDS011;7799;53.478;10.170;2023-02-11T14:30:33;4.90;;;4.40;;
15402;SDS011;7799;53.478;10.170;2023-02-11T14:36:17;6.23;;;5.13;;
15402;SDS011;7799;53.478;10.170;2023-02-11T14:39:10;8.90;;;5.80;;
15402;SDS011;7799;53.478;10.170;2023-02-11T14:41:43;6.53;;;5.47;;
15402;SDS011;7799;53.478;10.170;2023-02-11T14:44:13;6.57;;;5.40;;
15402;SDS011;7799;53.478;10.170;2023-02-11T14:46:43;7.57;;;6.10;;
15402;SDS011;7799;53.478;10.170;2023-02-11T14:49:12;7.60;;;6.10;;
15402;SDS011;7799;53.478;10.170;2023-02-11T14:51:46;6.87;;;5.40;;
15402;SDS011;7799;53.478;10.170;2023-02-11T14:54:14;6.53;;;4.70;;
15402;SDS011;7799;53.478;10.170;2023-02-11T14:56:42;6.93;;;5.10;;
15402;SDS011;7799;53.478;10.170;2023-02-11T14:59:16;5.30;;;4.80;;
15402;SDS011;7799;53.478;10.170;2023-02-11T15:01:48;6.23;;;5.63;;
15402;SDS011;7799;53.478;10.170;2023-02-11T15:04:22;6.47;;;4.90;;
15402;SDS011;7799;53.478;10.170;2023-02-11T15:06:50;5.40;;;4.90;;
15402;SDS011;7799;53.478;10.170;2023-02-11T15:09:18;8.03;;;5.20;;
15402;SDS011;7799;53.478;10.170;2023-02-11T15:11:48;6.57;;;4.63;;
15402;SDS011;7799;53.478;10.170;2023-02-11T15:14:18;5.90;;;4.63;;
15402;SDS011;7799;53.478;10.170;2023-02-11T15:16:49;9.43;;;4.63;;